createdAt,value
2018-06-23T00:00:30.426Z,14.20
2018-06-23T00:02:59.482Z,14.20
2018-06-23T00:07:57.161Z,14.10
2018-06-23T00:12:54.842Z,13.90
2018-06-23T00:15:23.909Z,13.90
2018-06-23T00:17:52.957Z,14.00
2018-06-23T00:20:22.248Z,14.00
2018-06-23T00:22:51.635Z,14.00
2018-06-23T00:25:26.068Z,13.80
2018-06-23T00:27:55.548Z,13.90
2018-06-23T00:30:24.624Z,13.90
2018-06-23T00:32:53.851Z,13.70
2018-06-23T00:35:23.077Z,13.60
2018-06-23T00:37:52.097Z,13.50
2018-06-23T00:40:21.105Z,13.50
2018-06-23T00:42:50.142Z,13.40
2018-06-23T00:45:19.206Z,13.40
2018-06-23T00:47:48.255Z,13.50
2018-06-23T00:50:17.281Z,13.40
2018-06-23T00:52:46.313Z,13.50
2018-06-23T00:55:15.333Z,13.50
2018-06-23T00:57:44.361Z,13.50
2018-06-23T01:00:13.352Z,13.50
2018-06-23T01:02:42.416Z,13.40
2018-06-23T01:05:11.404Z,13.30
2018-06-23T01:07:40.653Z,13.30
2018-06-23T01:10:09.651Z,13.10
2018-06-23T01:12:38.643Z,13.10
2018-06-23T01:15:07.740Z,13.00
2018-06-23T01:17:36.882Z,13.10
2018-06-23T01:20:05.928Z,13.10
2018-06-23T01:22:34.943Z,13.10
2018-06-23T01:25:03.982Z,13.00
2018-06-23T01:27:32.993Z,13.00
2018-06-23T01:30:02.001Z,13.10
2018-06-23T01:32:31.112Z,13.00
2018-06-23T01:35:00.105Z,12.90
2018-06-23T01:37:29.258Z,13.00
2018-06-23T01:39:58.260Z,13.00
2018-06-23T01:42:27.257Z,13.10
2018-06-23T01:44:56.288Z,13.00
2018-06-23T01:47:25.325Z,13.00
2018-06-23T01:49:54.324Z,13.10
2018-06-23T01:52:23.320Z,13.10
2018-06-23T01:54:52.344Z,13.00
2018-06-23T01:57:21.345Z,13.00
2018-06-23T01:59:50.533Z,13.00
2018-06-23T02:02:19.545Z,13.00
2018-06-23T02:04:48.580Z,13.10
2018-06-23T02:07:17.610Z,13.00
2018-06-23T02:09:46.631Z,13.00
2018-06-23T02:12:15.681Z,13.00
2018-06-23T02:14:50.212Z,13.00
2018-06-23T02:17:24.508Z,13.10
2018-06-23T02:19:58.873Z,13.00
2018-06-23T02:22:33.235Z,13.00
2018-06-23T02:25:07.569Z,13.00
2018-06-23T02:27:42.001Z,13.10
2018-06-23T02:30:16.405Z,13.10
2018-06-23T02:32:47.396Z,13.10
2018-06-23T02:35:16.398Z,13.00
2018-06-23T02:37:45.393Z,13.00
2018-06-23T02:40:14.625Z,13.00
2018-06-23T02:42:43.612Z,13.00
2018-06-23T02:45:12.625Z,12.90
2018-06-23T02:47:41.661Z,13.00
2018-06-23T02:50:10.662Z,13.00
2018-06-23T02:52:39.680Z,12.90
2018-06-23T02:55:08.717Z,12.90
2018-06-23T02:57:37.743Z,12.90
2018-06-23T03:00:07.002Z,12.90
2018-06-23T03:02:36.000Z,12.90
2018-06-23T03:05:05.134Z,12.90
2018-06-23T03:07:34.137Z,12.90
2018-06-23T03:10:03.193Z,12.90
2018-06-23T03:12:32.237Z,12.90
2018-06-23T03:15:01.494Z,12.90
2018-06-23T03:17:30.496Z,12.80
2018-06-23T03:19:59.485Z,12.80
2018-06-23T03:22:28.604Z,12.80
2018-06-23T03:24:57.613Z,12.90
2018-06-23T03:27:26.673Z,12.90
2018-06-23T03:29:55.721Z,12.90
2018-06-23T03:32:24.724Z,12.90
2018-06-23T03:34:53.765Z,12.90
2018-06-23T03:37:22.764Z,12.90
2018-06-23T03:39:51.809Z,12.80
2018-06-23T03:42:20.841Z,12.80
2018-06-23T03:44:49.849Z,12.90
2018-06-23T03:47:18.863Z,12.90
2018-06-23T03:49:48.141Z,13.00
2018-06-23T03:52:17.144Z,12.80
2018-06-23T03:54:46.154Z,12.90
2018-06-23T03:57:15.189Z,12.90
2018-06-23T03:59:44.197Z,13.00
2018-06-23T04:02:13.226Z,13.00
2018-06-23T04:04:42.317Z,12.90
2018-06-23T04:07:11.323Z,12.90
2018-06-23T04:09:40.339Z,12.90
2018-06-23T04:12:09.575Z,12.80
2018-06-23T04:14:38.552Z,12.70
2018-06-23T04:17:07.549Z,12.80
2018-06-23T04:19:36.589Z,12.80
2018-06-23T04:22:05.680Z,12.80
2018-06-23T04:24:34.704Z,13.00
2018-06-23T04:27:03.787Z,12.90
2018-06-23T04:29:32.846Z,13.00
2018-06-23T04:32:01.977Z,12.90
2018-06-23T04:34:30.985Z,13.10
2018-06-23T04:37:00.038Z,13.00
2018-06-23T04:39:35.619Z,13.10
2018-06-23T04:42:04.623Z,13.20
2018-06-23T04:44:33.819Z,13.30
2018-06-23T04:47:02.992Z,13.20
2018-06-23T04:49:32.061Z,13.20
2018-06-23T04:52:01.064Z,13.20
2018-06-23T04:54:30.113Z,13.00
2018-06-23T04:56:59.152Z,12.90
2018-06-23T04:59:28.215Z,13.00
2018-06-23T05:01:57.229Z,13.10
2018-06-23T05:04:26.353Z,13.10
2018-06-23T05:06:56.238Z,13.30
2018-06-23T05:09:26.308Z,13.40
2018-06-23T05:11:55.486Z,13.50
2018-06-23T05:14:24.593Z,13.50
2018-06-23T05:16:53.650Z,13.40
2018-06-23T05:19:22.666Z,13.50
2018-06-23T05:21:51.996Z,13.50
2018-06-23T05:24:21.017Z,13.50
2018-06-23T05:26:50.089Z,13.50
2018-06-23T05:29:19.424Z,13.10
2018-06-23T05:31:48.513Z,13.00
2018-06-23T05:34:17.529Z,13.00
2018-06-23T05:36:46.554Z,13.00
2018-06-23T05:39:15.618Z,13.00
2018-06-23T05:41:44.697Z,12.90
2018-06-23T05:44:13.733Z,13.10
2018-06-23T05:46:42.811Z,13.30
2018-06-23T05:49:11.884Z,13.30
2018-06-23T05:51:40.896Z,13.20
2018-06-23T05:54:09.990Z,13.10
2018-06-23T05:56:39.024Z,13.00
2018-06-23T05:59:08.066Z,12.90
2018-06-23T06:01:37.123Z,12.80
2018-06-23T06:04:06.136Z,12.90
2018-06-23T06:06:35.175Z,12.90
2018-06-23T06:09:05.987Z,13.00
2018-06-23T06:11:35.031Z,13.00
2018-06-23T06:14:04.158Z,12.90
2018-06-23T06:17:47.628Z,12.90
2018-06-23T06:20:17.018Z,12.90
2018-06-23T06:22:46.862Z,12.90
2018-06-23T06:25:16.506Z,13.00
2018-06-23T06:27:45.525Z,13.10
2018-06-23T06:30:14.561Z,13.20
2018-06-23T06:32:43.602Z,13.30
2018-06-23T06:35:12.604Z,13.20
2018-06-23T06:37:41.608Z,13.10
2018-06-23T06:40:10.604Z,13.10
2018-06-23T06:42:39.690Z,13.20
2018-06-23T06:45:08.706Z,13.40
2018-06-23T06:47:37.768Z,13.60
2018-06-23T06:50:06.787Z,14.00
2018-06-23T06:52:35.801Z,14.00
2018-06-23T06:55:04.865Z,13.80
2018-06-23T06:57:33.862Z,13.80
2018-06-23T07:00:02.935Z,14.00
2018-06-23T07:02:32.133Z,14.00
2018-06-23T07:05:01.142Z,14.10
2018-06-23T07:07:30.132Z,14.20
2018-06-23T07:09:59.169Z,14.30
2018-06-23T07:12:28.302Z,14.30
2018-06-23T07:14:57.323Z,14.00
2018-06-23T07:17:26.477Z,14.20
2018-06-23T07:19:55.719Z,14.20
2018-06-23T07:22:24.723Z,13.90
2018-06-23T07:24:53.721Z,13.90
2018-06-23T07:27:22.849Z,13.70
2018-06-23T07:29:51.893Z,13.80
2018-06-23T07:32:20.909Z,13.80
2018-06-23T07:34:50.116Z,14.00
2018-06-23T07:37:19.209Z,14.20
2018-06-23T07:39:48.245Z,14.30
2018-06-23T07:47:18.177Z,14.10
2018-06-23T07:49:47.191Z,14.40
2018-06-23T07:52:16.224Z,14.60
2018-06-23T07:54:45.308Z,14.40
2018-06-23T07:57:14.311Z,14.20
2018-06-23T07:59:43.513Z,14.10
2018-06-23T08:02:12.517Z,14.30
2018-06-23T08:04:41.708Z,14.20
2018-06-23T08:07:10.789Z,14.40
2018-06-23T08:09:39.794Z,14.50
2018-06-23T08:12:08.837Z,14.40
2018-06-23T08:14:37.862Z,14.70
2018-06-23T08:17:06.956Z,15.00
2018-06-23T08:19:36.062Z,15.30
2018-06-23T08:22:05.094Z,15.40
2018-06-23T08:24:34.120Z,15.20
2018-06-23T08:27:03.234Z,15.20
2018-06-23T08:29:32.236Z,14.80
2018-06-23T08:32:01.315Z,15.00
2018-06-23T08:34:30.280Z,15.20
2018-06-23T08:39:27.941Z,14.90
2018-06-23T08:41:56.952Z,15.10
2018-06-23T08:44:25.990Z,15.50
2018-06-23T08:46:54.998Z,15.60
2018-06-23T08:49:25.749Z,15.50
2018-06-23T08:51:54.748Z,15.40
2018-06-23T08:54:23.740Z,15.10
2018-06-23T08:56:52.887Z,14.90
2018-06-23T08:59:22.311Z,14.80
2018-06-23T09:01:51.715Z,14.70
2018-06-23T09:04:20.738Z,14.90
2018-06-23T09:06:49.769Z,15.00
2018-06-23T09:09:18.857Z,15.20
2018-06-23T09:11:47.919Z,15.50
2018-06-23T09:14:16.957Z,15.50
2018-06-23T09:16:46.037Z,15.30
2018-06-23T09:19:15.154Z,15.40
2018-06-23T09:21:44.172Z,15.60
2018-06-23T09:24:13.223Z,15.50
2018-06-23T09:26:42.233Z,15.90
2018-06-23T09:29:11.417Z,16.10
2018-06-23T09:31:40.567Z,16.10
2018-06-23T09:34:09.567Z,16.30
2018-06-23T09:36:38.604Z,16.50
2018-06-23T09:39:09.329Z,16.60
2018-06-23T09:41:38.329Z,16.30
2018-06-23T09:44:07.789Z,16.20
2018-06-23T09:46:37.465Z,15.90
2018-06-23T09:49:06.549Z,15.60
2018-06-23T09:51:35.825Z,15.90
2018-06-23T09:54:05.332Z,16.20
2018-06-23T09:56:34.364Z,16.20
2018-06-23T09:59:03.417Z,16.40
2018-06-23T10:01:32.476Z,16.70
2018-06-23T10:04:01.794Z,16.70
2018-06-23T10:06:30.845Z,16.50
2018-06-23T10:08:59.849Z,16.50
2018-06-23T10:11:28.905Z,16.60
2018-06-23T10:13:57.970Z,16.50
2018-06-23T10:16:27.109Z,16.90
2018-06-23T10:18:56.123Z,17.20
2018-06-23T10:21:25.616Z,16.80
2018-06-23T10:23:54.811Z,16.70
2018-06-23T10:26:25.193Z,16.70
2018-06-23T10:28:55.018Z,17.10
2018-06-23T10:31:24.034Z,17.60
2018-06-23T10:33:53.216Z,17.70
2018-06-23T10:36:22.277Z,18.30
2018-06-23T10:38:51.367Z,18.00
2018-06-23T10:41:20.412Z,18.00
2018-06-23T10:43:49.429Z,17.70
2018-06-23T10:46:19.921Z,17.60
2018-06-23T10:48:48.948Z,17.40
2018-06-23T10:51:18.293Z,17.80
2018-06-23T10:53:47.304Z,18.60
2018-06-23T10:56:16.574Z,18.60
2018-06-23T10:58:45.620Z,18.50
2018-06-23T11:01:14.637Z,18.20
2018-06-23T11:03:43.653Z,18.40
2018-06-23T11:06:12.717Z,17.90
2018-06-23T11:08:41.758Z,18.00
2018-06-23T11:11:10.854Z,18.80
2018-06-23T11:13:39.867Z,19.20
2018-06-23T11:16:08.954Z,19.70
2018-06-23T11:18:38.453Z,19.90
2018-06-23T11:21:07.485Z,20.30
2018-06-23T11:23:36.489Z,20.40
2018-06-23T11:26:05.592Z,20.20
2018-06-23T11:28:34.605Z,20.30
2018-06-23T11:31:03.630Z,20.50
2018-06-23T11:33:32.780Z,20.00
2018-06-23T11:36:01.947Z,19.30
2018-06-23T11:38:31.089Z,18.90
2018-06-23T11:41:00.094Z,18.40
2018-06-23T11:43:29.093Z,18.40
2018-06-23T11:45:58.116Z,18.50
2018-06-23T11:48:27.140Z,18.40
2018-06-23T11:50:56.217Z,18.20
2018-06-23T11:53:25.458Z,17.90
2018-06-23T11:55:54.493Z,17.80
2018-06-23T11:58:23.525Z,17.90
2018-06-23T12:00:52.587Z,17.90
2018-06-23T12:03:21.596Z,18.10
2018-06-23T12:05:50.657Z,19.00
2018-06-23T12:08:19.665Z,19.70
2018-06-23T12:10:48.729Z,19.30
2018-06-23T12:13:17.757Z,18.80
2018-06-23T12:15:46.782Z,18.30
2018-06-23T12:18:15.958Z,17.90
2018-06-23T12:20:44.964Z,17.80
2018-06-23T12:23:13.960Z,17.70
2018-06-23T12:25:43.044Z,17.60
2018-06-23T12:28:12.127Z,17.60
2018-06-23T12:30:41.441Z,17.40
2018-06-23T12:33:10.525Z,17.20
2018-06-23T12:35:39.530Z,16.90
2018-06-23T12:38:08.621Z,16.80
2018-06-23T12:40:37.633Z,17.00
2018-06-23T12:43:06.656Z,17.10
2018-06-23T12:45:35.653Z,17.50
2018-06-23T12:48:04.775Z,17.70
2018-06-23T12:50:33.806Z,17.90
2018-06-23T12:53:02.900Z,17.90
2018-06-23T12:55:31.918Z,17.90
2018-06-23T12:58:00.932Z,17.70
2018-06-23T13:00:30.050Z,17.50
2018-06-23T13:02:59.069Z,17.30
2018-06-23T13:05:28.128Z,17.10
2018-06-23T13:07:57.132Z,17.40
2018-06-23T13:10:26.151Z,17.70
2018-06-23T13:12:55.333Z,18.00
2018-06-23T13:15:24.321Z,18.30
2018-06-23T13:17:53.358Z,18.30
2018-06-23T13:20:22.412Z,18.20
2018-06-23T13:22:51.518Z,17.90
2018-06-23T13:25:20.611Z,17.80
2018-06-23T13:27:49.629Z,18.00
2018-06-23T13:30:18.637Z,18.10
2018-06-23T13:32:47.673Z,18.20
2018-06-23T13:35:17.429Z,18.40
2018-06-23T13:37:46.426Z,18.40
2018-06-23T13:40:15.479Z,18.50
2018-06-23T13:42:44.479Z,18.80
2018-06-23T13:45:13.473Z,19.40
2018-06-23T13:47:42.520Z,19.60
2018-06-23T13:52:40.260Z,20.10
2018-06-23T13:55:09.298Z,19.80
2018-06-23T13:57:38.349Z,19.70
2018-06-23T14:02:36.638Z,19.40
2018-06-23T14:05:05.738Z,19.10
2018-06-23T14:07:35.012Z,19.00
2018-06-23T14:10:04.436Z,19.10
2018-06-23T14:12:33.429Z,19.60
2018-06-23T14:15:02.516Z,20.30
2018-06-23T14:20:00.425Z,19.80
2018-06-23T14:27:26.834Z,20.20
2018-06-23T14:29:55.937Z,20.50
2018-06-23T14:32:24.953Z,20.40
2018-06-23T14:34:53.992Z,20.00
2018-06-23T14:37:23.013Z,19.20
2018-06-23T14:39:52.230Z,19.10
2018-06-23T14:42:21.304Z,19.10
2018-06-23T14:44:50.291Z,18.70
2018-06-23T14:47:19.353Z,18.60
2018-06-23T14:49:48.401Z,19.10
2018-06-23T14:52:17.594Z,19.40
2018-06-23T14:54:46.592Z,18.90
2018-06-23T14:57:15.779Z,19.20
2018-06-23T14:59:44.783Z,19.40
2018-06-23T15:02:13.797Z,19.60
2018-06-23T15:04:42.839Z,19.90
2018-06-23T15:07:11.845Z,19.70
2018-06-23T15:09:52.213Z,19.80
2018-06-23T15:12:32.416Z,21.20
2018-06-23T15:15:01.633Z,21.50
2018-06-23T15:17:30.881Z,20.60
2018-06-23T15:19:59.977Z,20.60
2018-06-23T15:22:28.985Z,20.40
2018-06-23T15:24:58.063Z,19.70
2018-06-23T15:27:27.124Z,19.20
2018-06-23T15:29:56.113Z,19.00
2018-06-23T15:32:25.157Z,19.00
2018-06-23T15:34:54.152Z,18.90
2018-06-23T15:37:23.201Z,18.50
2018-06-23T15:39:52.397Z,18.50
2018-06-23T15:42:21.452Z,18.60
2018-06-23T15:44:50.513Z,18.50
2018-06-23T15:47:19.555Z,18.40
2018-06-23T15:49:48.629Z,18.60
2018-06-23T15:52:17.642Z,18.60
2018-06-23T15:54:46.639Z,18.30
2018-06-23T15:57:15.849Z,18.20
2018-06-23T15:59:44.849Z,18.40
2018-06-23T16:02:13.844Z,18.40
2018-06-23T16:04:42.909Z,18.70
2018-06-23T16:07:11.933Z,18.30
2018-06-23T16:09:40.969Z,18.00
2018-06-23T16:12:10.011Z,17.80
2018-06-23T16:14:39.053Z,17.80
2018-06-23T16:17:08.103Z,17.90
2018-06-23T16:19:37.105Z,17.50
2018-06-23T16:22:06.180Z,17.50
2018-06-23T16:24:35.268Z,17.60
2018-06-23T16:27:04.328Z,17.60
2018-06-23T16:29:33.397Z,17.70
2018-06-23T16:32:02.493Z,17.70
2018-06-23T16:34:31.652Z,17.60
2018-06-23T16:37:00.617Z,17.60
2018-06-23T16:39:29.647Z,17.40
2018-06-23T16:41:58.736Z,17.40
2018-06-23T16:44:27.748Z,17.40
2018-06-23T16:46:56.753Z,17.40
2018-06-23T16:49:26.014Z,17.30
2018-06-23T16:51:55.016Z,17.30
2018-06-23T16:54:24.073Z,17.40
2018-06-23T16:56:53.104Z,17.00
2018-06-23T16:59:22.096Z,17.00
2018-06-23T17:01:51.084Z,16.80
2018-06-23T17:04:20.136Z,16.90
2018-06-23T17:06:55.031Z,17.00
2018-06-23T17:09:24.071Z,16.90
2018-06-23T17:11:53.052Z,16.90
2018-06-23T17:14:22.084Z,16.90
2018-06-23T17:16:51.129Z,16.80
2018-06-23T17:19:20.150Z,16.80
2018-06-23T17:21:49.153Z,16.80
2018-06-23T17:24:18.308Z,16.80
2018-06-23T17:26:47.321Z,17.00
2018-06-23T17:29:16.321Z,16.90
2018-06-23T17:31:45.370Z,16.90
2018-06-23T17:34:14.385Z,16.80
2018-06-23T17:36:44.241Z,16.80
2018-06-23T17:39:13.243Z,16.70
2018-06-23T17:41:42.286Z,16.60
2018-06-23T17:44:11.330Z,16.60
2018-06-23T17:46:40.333Z,16.50
2018-06-23T17:49:09.389Z,16.50
2018-06-23T17:51:38.805Z,16.50
2018-06-23T17:54:07.696Z,16.50
2018-06-23T17:56:36.842Z,16.40
2018-06-23T17:59:06.074Z,16.30
2018-06-23T18:01:35.121Z,16.20
2018-06-23T18:04:04.478Z,16.20
2018-06-23T18:06:33.529Z,16.10
2018-06-23T18:09:02.567Z,16.20
2018-06-23T18:11:31.572Z,16.20
2018-06-23T18:14:00.860Z,16.30
2018-06-23T18:18:58.773Z,16.10
2018-06-23T18:23:56.405Z,15.80
2018-06-23T18:26:25.443Z,15.80
2018-06-23T18:28:54.501Z,15.90
2018-06-23T18:31:23.533Z,15.80
2018-06-23T18:33:52.535Z,15.70
2018-06-23T18:36:21.605Z,15.50
2018-06-23T18:38:50.609Z,15.40
2018-06-23T18:41:19.705Z,15.40
2018-06-23T18:43:48.721Z,15.50
2018-06-23T18:46:17.730Z,15.50
2018-06-23T18:48:46.925Z,15.60
2018-06-23T18:51:15.939Z,15.60
2018-06-23T18:53:44.990Z,15.40
2018-06-23T18:56:14.064Z,15.40
2018-06-23T18:58:43.338Z,15.40
2018-06-23T19:01:12.453Z,15.40
2018-06-23T19:03:41.530Z,15.30
2018-06-23T19:06:10.541Z,15.30
2018-06-23T19:08:39.783Z,15.20
2018-06-23T19:11:08.928Z,15.10
2018-06-23T19:13:38.161Z,15.10
2018-06-23T19:16:07.213Z,15.20
2018-06-23T19:18:36.222Z,15.40
2018-06-23T19:21:05.653Z,15.30
2018-06-23T19:23:34.673Z,15.40
2018-06-23T19:26:03.741Z,15.20
2018-06-23T19:28:32.779Z,15.30
2018-06-23T19:31:01.785Z,15.20
2018-06-23T19:33:30.829Z,15.00
2018-06-23T19:35:59.889Z,14.90
2018-06-23T19:38:29.790Z,14.90
2018-06-23T19:40:58.832Z,14.90
2018-06-23T19:43:27.877Z,14.80
2018-06-23T19:45:56.929Z,14.90
2018-06-23T19:48:26.074Z,14.90
2018-06-23T19:50:55.131Z,14.90
2018-06-23T19:53:24.149Z,14.80
2018-06-23T19:55:53.164Z,14.80
2018-06-23T19:58:22.226Z,14.80
2018-06-23T20:00:51.238Z,14.90
2018-06-23T20:03:20.281Z,14.80
2018-06-23T20:05:49.309Z,14.80
2018-06-23T20:08:18.381Z,14.90
2018-06-23T20:10:47.409Z,14.80
2018-06-23T20:13:16.572Z,14.80
2018-06-23T20:15:45.621Z,14.70
2018-06-23T20:18:14.640Z,14.70
2018-06-23T20:20:43.637Z,14.70
2018-06-23T20:23:12.677Z,14.80
2018-06-23T20:25:41.685Z,14.80
2018-06-23T20:28:10.797Z,14.70
2018-06-23T20:30:39.827Z,14.70
2018-06-23T20:33:08.873Z,14.70
2018-06-23T20:35:37.908Z,14.60
2018-06-23T20:40:35.653Z,14.60
2018-06-23T20:43:05.241Z,14.60
2018-06-23T20:45:34.352Z,14.60
2018-06-23T20:48:03.502Z,14.50
2018-06-23T20:50:32.577Z,14.50
2018-06-23T20:53:01.636Z,14.50
2018-06-23T20:55:30.912Z,14.50
2018-06-23T20:57:59.961Z,14.40
2018-06-23T21:00:29.012Z,14.30
2018-06-23T21:02:58.120Z,14.20
2018-06-23T21:05:27.126Z,14.10
2018-06-23T21:07:56.177Z,14.10
2018-06-23T21:10:39.828Z,14.00
2018-06-23T21:13:09.009Z,14.00
2018-06-23T21:15:38.097Z,13.90
2018-06-23T21:18:07.248Z,13.90
2018-06-23T21:20:36.289Z,14.00
2018-06-23T21:25:34.021Z,14.20
2018-06-23T21:28:03.089Z,14.20
2018-06-23T21:30:32.628Z,14.10
2018-06-23T21:33:01.671Z,14.10
2018-06-23T21:35:30.656Z,14.10
2018-06-23T21:37:59.840Z,14.10
2018-06-23T21:42:57.502Z,14.10
2018-06-23T21:45:26.546Z,14.20
2018-06-23T21:50:24.268Z,14.20
2018-06-23T21:52:53.273Z,14.20
2018-06-23T21:55:22.279Z,14.10
2018-06-23T21:57:51.321Z,14.10
2018-06-23T22:00:35.713Z,14.00
2018-06-23T22:03:05.766Z,14.00
2018-06-23T22:05:34.984Z,14.00
2018-06-23T22:08:04.379Z,14.00
2018-06-23T22:10:33.380Z,14.00
2018-06-23T22:13:02.450Z,14.00
2018-06-23T22:15:31.479Z,14.00
2018-06-23T22:18:00.520Z,14.00
2018-06-23T22:22:58.248Z,14.10
2018-06-23T22:25:27.249Z,14.10
2018-06-23T22:27:56.265Z,14.20
2018-06-23T22:30:25.349Z,14.20
2018-06-23T22:32:54.470Z,14.20
2018-06-23T22:35:23.504Z,14.30
2018-06-23T22:37:52.544Z,14.20
2018-06-23T22:40:21.716Z,14.20
2018-06-23T22:42:50.768Z,14.20
2018-06-23T22:45:19.804Z,14.20
2018-06-23T22:47:48.813Z,14.20
2018-06-23T22:50:17.868Z,14.20
2018-06-23T22:52:46.928Z,14.20
2018-06-23T22:55:15.968Z,14.10
2018-06-23T22:57:45.001Z,14.00
2018-06-23T23:00:14.633Z,14.00
2018-06-23T23:02:44.228Z,14.00
2018-06-23T23:05:13.229Z,14.10
2018-06-23T23:07:42.297Z,14.00
2018-06-23T23:10:11.724Z,14.00
2018-06-23T23:12:41.158Z,13.80
2018-06-23T23:15:10.137Z,13.80
2018-06-23T23:17:39.136Z,13.80
2018-06-23T23:20:08.183Z,13.70
2018-06-23T23:22:37.172Z,13.70
2018-06-23T23:25:06.258Z,13.70
2018-06-23T23:27:35.296Z,13.80
2018-06-23T23:30:06.224Z,13.80
2018-06-23T23:32:35.307Z,13.70
2018-06-23T23:37:33.036Z,13.60
2018-06-23T23:40:02.124Z,13.70
2018-06-23T23:42:31.134Z,13.70
2018-06-23T23:45:00.377Z,13.70
2018-06-23T23:47:29.377Z,13.50
2018-06-23T23:49:58.381Z,13.50
2018-06-23T23:52:27.638Z,13.40
2018-06-23T23:54:56.688Z,13.50
2018-06-23T23:57:25.701Z,13.60
2018-06-23T23:59:54.753Z,13.50
